sensor_id;sensor_type;location;lat;lon;timestamp;P1;durP1;ratioP1;P2;durP2;ratioP2
26474;SDS011;14161;52.270;10.334;2023-05-15T10:22:22;4.93;;;2.50;;
26474;SDS011;14161;52.270;10.334;2023-05-15T10:25:07;6.10;;;2.80;;
26474;SDS011;14161;52.270;10.334;2023-05-15T10:27:34;2.75;;;2.42;;
26474;SDS011;14161;52.270;10.334;2023-05-15T10:30:30;3.50;;;3.17;;
26474;SDS011;14161;52.270;10.334;2023-05-15T10:33:32;6.75;;;3.47;;
26474;SDS011;14161;52.270;10.334;2023-05-15T10:36:11;5.40;;;2.70;;
26474;SDS011;14161;52.270;10.334;2023-05-15T10:38:46;3.70;;;2.88;;
26474;SDS011;14161;52.270;10.334;2023-05-15T10:41:34;4.22;;;2.80;;
26474;SDS011;14161;52.270;10.334;2023-05-15T10:44:09;3.28;;;2.65;;
26474;SDS011;14161;52.270;10.334;2023-05-15T10:49:08;5.47;;;3.45;;
26474;SDS011;14161;52.270;10.334;2023-05-15T10:52:21;5.93;;;3.00;;
26474;SDS011;14161;52.270;10.334;2023-05-15T10:54:51;6.30;;;3.00;;
26474;SDS011;14161;52.270;10.334;2023-05-15T10:57:22;6.30;;;3.33;;
26474;SDS011;14161;52.270;10.334;2023-05-15T10:59:48;9.23;;;3.10;;
26474;SDS011;14161;52.270;10.334;2023-05-15T11:02:47;5.43;;;3.42;;
26474;SDS011;14161;52.270;10.334;2023-05-15T11:05:25;4.37;;;3.27;;
26474;SDS011;14161;52.270;10.334;2023-05-15T11:10:50;5.32;;;3.03;;
26474;SDS011;14161;52.270;10.334;2023-05-15T11:16:55;6.22;;;2.67;;
26474;SDS011;14161;52.270;10.334;2023-05-15T11:19:34;4.72;;;2.75;;
26474;SDS011;14161;52.270;10.334;2023-05-15T11:22:34;7.50;;;2.72;;
26474;SDS011;14161;52.270;10.334;2023-05-15T11:25:40;4.53;;;2.63;;
26474;SDS011;14161;52.270;10.334;2023-05-15T11:28:14;4.18;;;2.90;;
26474;SDS011;14161;52.270;10.334;2023-05-15T11:33:49;4.88;;;2.80;;
26474;SDS011;14161;52.270;10.334;2023-05-15T11:36:27;5.57;;;2.90;;
26474;SDS011;14161;52.270;10.334;2023-05-15T11:39:17;4.10;;;3.00;;
26474;SDS011;14161;52.270;10.334;2023-05-15T11:41:53;3.53;;;2.78;;
26474;SDS011;14161;52.270;10.334;2023-05-15T11:44:22;4.70;;;2.83;;
26474;SDS011;14161;52.270;10.334;2023-05-15T11:47:03;6.38;;;2.67;;
26474;SDS011;14161;52.270;10.334;2023-05-15T11:49:41;4.13;;;2.58;;
26474;SDS011;14161;52.270;10.334;2023-05-15T11:52:14;2.67;;;2.42;;
26474;SDS011;14161;52.270;10.334;2023-05-15T11:58:13;5.28;;;2.65;;
26474;SDS011;14161;52.270;10.334;2023-05-15T12:01:04;3.60;;;2.20;;
26474;SDS011;14161;52.270;10.334;2023-05-15T12:03:45;5.35;;;3.03;;
26474;SDS011;14161;52.270;10.334;2023-05-15T12:06:20;7.40;;;2.78;;
26474;SDS011;14161;52.270;10.334;2023-05-15T12:08:52;6.00;;;2.95;;
26474;SDS011;14161;52.270;10.334;2023-05-15T12:11:30;6.18;;;3.03;;
26474;SDS011;14161;52.270;10.334;2023-05-15T12:14:09;3.42;;;2.58;;
26474;SDS011;14161;52.270;10.334;2023-05-15T12:16:53;4.07;;;2.55;;
26474;SDS011;14161;52.270;10.334;2023-05-15T12:21:59;4.53;;;2.75;;
26474;SDS011;14161;52.270;10.334;2023-05-15T12:24:31;3.83;;;3.30;;
26474;SDS011;14161;52.270;10.334;2023-05-15T12:27:05;5.97;;;3.97;;
26474;SDS011;14161;52.270;10.334;2023-05-15T12:29:42;5.45;;;3.20;;
26474;SDS011;14161;52.270;10.334;2023-05-15T12:32:21;5.97;;;3.20;;
26474;SDS011;14161;52.270;10.334;2023-05-15T12:34:52;8.27;;;3.35;;
26474;SDS011;14161;52.270;10.334;2023-05-15T12:37:27;4.43;;;3.15;;
26474;SDS011;14161;52.270;10.334;2023-05-15T12:39:56;3.67;;;2.88;;
26474;SDS011;14161;52.270;10.334;2023-05-15T12:42:24;4.43;;;2.90;;
26474;SDS011;14161;52.270;10.334;2023-05-15T12:44:50;4.88;;;3.15;;
26474;SDS011;14161;52.270;10.334;2023-05-15T12:47:20;6.25;;;3.30;;
26474;SDS011;14161;52.270;10.334;2023-05-15T12:49:47;5.15;;;2.63;;
26474;SDS011;14161;52.270;10.334;2023-05-15T12:52:13;3.30;;;2.58;;
26474;SDS011;14161;52.270;10.334;2023-05-15T12:54:39;4.82;;;2.72;;
26474;SDS011;14161;52.270;10.334;2023-05-15T12:57:15;4.03;;;2.17;;
26474;SDS011;14161;52.270;10.334;2023-05-15T12:59:44;7.38;;;2.70;;
26474;SDS011;14161;52.270;10.334;2023-05-15T13:02:12;6.28;;;3.17;;
26474;SDS011;14161;52.270;10.334;2023-05-15T13:04:41;4.10;;;2.50;;
26474;SDS011;14161;52.270;10.334;2023-05-15T13:07:06;5.05;;;2.92;;
26474;SDS011;14161;52.270;10.334;2023-05-15T13:09:32;5.45;;;2.70;;
26474;SDS011;14161;52.270;10.334;2023-05-15T13:12:02;3.83;;;2.80;;
26474;SDS011;14161;52.270;10.334;2023-05-15T13:14:33;6.18;;;3.17;;
26474;SDS011;14161;52.270;10.334;2023-05-15T13:17:02;3.33;;;2.83;;
26474;SDS011;14161;52.270;10.334;2023-05-15T13:19:29;4.70;;;2.58;;
26474;SDS011;14161;52.270;10.334;2023-05-15T13:21:55;7.05;;;3.20;;
26474;SDS011;14161;52.270;10.334;2023-05-15T13:24:21;3.25;;;2.50;;
26474;SDS011;14161;52.270;10.334;2023-05-15T13:26:50;4.10;;;2.50;;
26474;SDS011;14161;52.270;10.334;2023-05-15T13:29:18;6.88;;;2.70;;
26474;SDS011;14161;52.270;10.334;2023-05-15T13:31:43;6.78;;;2.88;;
26474;SDS011;14161;52.270;10.334;2023-05-15T13:34:09;4.88;;;2.55;;
26474;SDS011;14161;52.270;10.334;2023-05-15T13:36:35;6.28;;;2.78;;
26474;SDS011;14161;52.270;10.334;2023-05-15T13:39:00;5.43;;;2.88;;
26474;SDS011;14161;52.270;10.334;2023-05-15T13:41:26;4.57;;;2.80;;
26474;SDS011;14161;52.270;10.334;2023-05-15T13:43:51;4.35;;;2.67;;
26474;SDS011;14161;52.270;10.334;2023-05-15T13:46:17;6.60;;;3.55;;
26474;SDS011;14161;52.270;10.334;2023-05-15T13:48:43;8.13;;;3.40;;
26474;SDS011;14161;52.270;10.334;2023-05-15T13:51:08;6.93;;;3.97;;
26474;SDS011;14161;52.270;10.334;2023-05-15T13:53:34;13.23;;;3.63;;
26474;SDS011;14161;52.270;10.334;2023-05-15T13:55:59;5.80;;;3.67;;
26474;SDS011;14161;52.270;10.334;2023-05-15T13:58:27;5.90;;;3.42;;
26474;SDS011;14161;52.270;10.334;2023-05-15T14:00:53;7.75;;;3.40;;
26474;SDS011;14161;52.270;10.334;2023-05-15T14:03:18;6.85;;;3.40;;
26474;SDS011;14161;52.270;10.334;2023-05-15T14:05:44;6.22;;;3.20;;
26474;SDS011;14161;52.270;10.334;2023-05-15T14:08:10;6.22;;;3.25;;
26474;SDS011;14161;52.270;10.334;2023-05-15T14:10:36;6.32;;;3.72;;
26474;SDS011;14161;52.270;10.334;2023-05-15T14:13:01;4.88;;;3.03;;
26474;SDS011;14161;52.270;10.334;2023-05-15T14:15:34;5.82;;;3.05;;
26474;SDS011;14161;52.270;10.334;2023-05-15T14:18:00;5.45;;;2.95;;
26474;SDS011;14161;52.270;10.334;2023-05-15T14:20:25;7.32;;;3.00;;
26474;SDS011;14161;52.270;10.334;2023-05-15T14:22:51;6.00;;;3.58;;
26474;SDS011;14161;52.270;10.334;2023-05-15T14:25:19;5.32;;;2.95;;
26474;SDS011;14161;52.270;10.334;2023-05-15T14:27:47;6.35;;;3.05;;
26474;SDS011;14161;52.270;10.334;2023-05-15T14:30:13;4.60;;;3.17;;
26474;SDS011;14161;52.270;10.334;2023-05-15T14:32:39;4.50;;;2.92;;
26474;SDS011;14161;52.270;10.334;2023-05-15T14:35:04;4.93;;;2.92;;
26474;SDS011;14161;52.270;10.334;2023-05-15T14:37:30;3.83;;;2.80;;
26474;SDS011;14161;52.270;10.334;2023-05-15T14:39:56;4.43;;;3.13;;
26474;SDS011;14161;52.270;10.334;2023-05-15T14:42:24;4.82;;;3.08;;
26474;SDS011;14161;52.270;10.334;2023-05-15T14:44:53;9.38;;;3.30;;
26474;SDS011;14161;52.270;10.334;2023-05-15T14:47:20;10.27;;;3.10;;
26474;SDS011;14161;52.270;10.334;2023-05-15T14:50:08;7.45;;;3.28;;
26474;SDS011;14161;52.270;10.334;2023-05-15T14:52:39;4.15;;;2.88;;
26474;SDS011;14161;52.270;10.334;2023-05-15T14:55:08;6.32;;;2.70;;
26474;SDS011;14161;52.270;10.334;2023-05-15T14:57:47;4.05;;;2.58;;
26474;SDS011;14161;52.270;10.334;2023-05-15T15:00:14;5.22;;;3.03;;
26474;SDS011;14161;52.270;10.334;2023-05-15T15:02:43;4.68;;;2.70;;
26474;SDS011;14161;52.270;10.334;2023-05-15T15:05:16;3.42;;;2.50;;
26474;SDS011;14161;52.270;10.334;2023-05-15T15:08:08;2.93;;;2.00;;
26474;SDS011;14161;52.270;10.334;2023-05-15T15:10:37;5.57;;;2.80;;
26474;SDS011;14161;52.270;10.334;2023-05-15T15:13:08;6.00;;;3.30;;
26474;SDS011;14161;52.270;10.334;2023-05-15T15:15:35;6.15;;;3.28;;
26474;SDS011;14161;52.270;10.334;2023-05-15T15:18:01;5.85;;;3.10;;
26474;SDS011;14161;52.270;10.334;2023-05-15T15:20:27;5.22;;;3.00;;
26474;SDS011;14161;52.270;10.334;2023-05-15T15:22:53;4.22;;;3.17;;
26474;SDS011;14161;52.270;10.334;2023-05-15T15:25:19;5.07;;;2.97;;
26474;SDS011;14161;52.270;10.334;2023-05-15T15:27:45;6.57;;;3.15;;
26474;SDS011;14161;52.270;10.334;2023-05-15T15:30:11;4.40;;;3.13;;
26474;SDS011;14161;52.270;10.334;2023-05-15T15:32:37;7.32;;;3.10;;
26474;SDS011;14161;52.270;10.334;2023-05-15T15:35:03;4.38;;;3.15;;
26474;SDS011;14161;52.270;10.334;2023-05-15T15:37:29;5.40;;;3.20;;
26474;SDS011;14161;52.270;10.334;2023-05-15T15:39:56;5.50;;;3.00;;
26474;SDS011;14161;52.270;10.334;2023-05-15T15:42:21;6.90;;;3.15;;
26474;SDS011;14161;52.270;10.334;2023-05-15T15:44:47;5.45;;;3.13;;
26474;SDS011;14161;52.270;10.334;2023-05-15T15:47:12;3.67;;;2.83;;
26474;SDS011;14161;52.270;10.334;2023-05-15T15:49:38;4.65;;;2.95;;
26474;SDS011;14161;52.270;10.334;2023-05-15T15:52:03;5.18;;;3.53;;
26474;SDS011;14161;52.270;10.334;2023-05-15T15:54:29;8.48;;;5.75;;
26474;SDS011;14161;52.270;10.334;2023-05-15T15:56:57;7.05;;;4.70;;
26474;SDS011;14161;52.270;10.334;2023-05-15T15:59:22;4.03;;;3.22;;
26474;SDS011;14161;52.270;10.334;2023-05-15T16:01:48;4.03;;;2.75;;
26474;SDS011;14161;52.270;10.334;2023-05-15T16:04:13;4.32;;;2.42;;
26474;SDS011;14161;52.270;10.334;2023-05-15T16:06:39;5.68;;;2.38;;
26474;SDS011;14161;52.270;10.334;2023-05-15T16:09:04;6.28;;;2.28;;
26474;SDS011;14161;52.270;10.334;2023-05-15T16:11:30;2.50;;;2.20;;
26474;SDS011;14161;52.270;10.334;2023-05-15T16:13:56;4.00;;;2.13;;
26474;SDS011;14161;52.270;10.334;2023-05-15T16:16:21;3.33;;;2.45;;
26474;SDS011;14161;52.270;10.334;2023-05-15T16:18:46;2.10;;;1.92;;
26474;SDS011;14161;52.270;10.334;2023-05-15T16:21:12;2.72;;;2.30;;
26474;SDS011;14161;52.270;10.334;2023-05-15T16:23:38;2.63;;;2.20;;
26474;SDS011;14161;52.270;10.334;2023-05-15T16:26:07;3.15;;;2.50;;
26474;SDS011;14161;52.270;10.334;2023-05-15T16:28:33;5.13;;;2.83;;
26474;SDS011;14161;52.270;10.334;2023-05-15T16:30:59;4.20;;;2.00;;
26474;SDS011;14161;52.270;10.334;2023-05-15T16:33:25;4.25;;;2.53;;
26474;SDS011;14161;52.270;10.334;2023-05-15T16:35:51;5.38;;;3.22;;
26474;SDS011;14161;52.270;10.334;2023-05-15T16:38:17;5.75;;;3.65;;
26474;SDS011;14161;52.270;10.334;2023-05-15T16:40:46;5.38;;;3.83;;
26474;SDS011;14161;52.270;10.334;2023-05-15T16:43:12;4.60;;;3.85;;
26474;SDS011;14161;52.270;10.334;2023-05-15T16:45:38;4.80;;;4.00;;
26474;SDS011;14161;52.270;10.334;2023-05-15T16:48:04;6.20;;;4.18;;
26474;SDS011;14161;52.270;10.334;2023-05-15T16:50:30;3.83;;;3.42;;
26474;SDS011;14161;52.270;10.334;2023-05-15T16:52:56;4.22;;;3.30;;
26474;SDS011;14161;52.270;10.334;2023-05-15T16:55:21;5.32;;;3.33;;
26474;SDS011;14161;52.270;10.334;2023-05-15T16:57:49;4.47;;;3.70;;
26474;SDS011;14161;52.270;10.334;2023-05-15T17:00:15;5.78;;;3.28;;
26474;SDS011;14161;52.270;10.334;2023-05-15T17:02:41;5.22;;;3.40;;
26474;SDS011;14161;52.270;10.334;2023-05-15T17:05:07;3.95;;;3.42;;
26474;SDS011;14161;52.270;10.334;2023-05-15T17:07:36;5.55;;;3.80;;
26474;SDS011;14161;52.270;10.334;2023-05-15T17:10:03;5.05;;;3.65;;
26474;SDS011;14161;52.270;10.334;2023-05-15T17:12:29;3.78;;;3.35;;
26474;SDS011;14161;52.270;10.334;2023-05-15T17:14:54;9.10;;;3.85;;
26474;SDS011;14161;52.270;10.334;2023-05-15T17:17:20;4.72;;;3.65;;
26474;SDS011;14161;52.270;10.334;2023-05-15T17:19:47;4.40;;;3.53;;
26474;SDS011;14161;52.270;10.334;2023-05-15T17:22:12;5.97;;;3.15;;
26474;SDS011;14161;52.270;10.334;2023-05-15T17:24:38;4.82;;;3.53;;
26474;SDS011;14161;52.270;10.334;2023-05-15T17:27:03;5.07;;;3.38;;
26474;SDS011;14161;52.270;10.334;2023-05-15T17:29:29;7.78;;;3.80;;
26474;SDS011;14161;52.270;10.334;2023-05-15T17:31:55;4.10;;;3.10;;
26474;SDS011;14161;52.270;10.334;2023-05-15T17:34:20;6.22;;;3.60;;
26474;SDS011;14161;52.270;10.334;2023-05-15T17:36:45;4.55;;;2.80;;
26474;SDS011;14161;52.270;10.334;2023-05-15T17:39:11;5.13;;;3.83;;
26474;SDS011;14161;52.270;10.334;2023-05-15T17:41:36;6.82;;;4.53;;
26474;SDS011;14161;52.270;10.334;2023-05-15T17:44:02;5.13;;;4.28;;
26474;SDS011;14161;52.270;10.334;2023-05-15T17:46:28;7.80;;;4.40;;
26474;SDS011;14161;52.270;10.334;2023-05-15T17:48:53;5.70;;;3.67;;
26474;SDS011;14161;52.270;10.334;2023-05-15T17:51:19;3.30;;;3.00;;
26474;SDS011;14161;52.270;10.334;2023-05-15T17:53:44;5.30;;;3.13;;
26474;SDS011;14161;52.270;10.334;2023-05-15T17:56:10;3.05;;;2.45;;
26474;SDS011;14161;52.270;10.334;2023-05-15T17:58:35;3.85;;;2.90;;
26474;SDS011;14161;52.270;10.334;2023-05-15T18:01:01;4.22;;;3.03;;
26474;SDS011;14161;52.270;10.334;2023-05-15T18:03:30;3.13;;;2.65;;
26474;SDS011;14161;52.270;10.334;2023-05-15T18:05:58;5.40;;;3.40;;
26474;SDS011;14161;52.270;10.334;2023-05-15T18:08:26;3.17;;;2.88;;
26474;SDS011;14161;52.270;10.334;2023-05-15T18:10:51;4.82;;;2.88;;
26474;SDS011;14161;52.270;10.334;2023-05-15T18:13:17;3.85;;;2.95;;
26474;SDS011;14161;52.270;10.334;2023-05-15T18:15:42;6.25;;;3.38;;
26474;SDS011;14161;52.270;10.334;2023-05-15T18:18:08;2.88;;;2.55;;
26474;SDS011;14161;52.270;10.334;2023-05-15T18:20:34;3.95;;;3.13;;
26474;SDS011;14161;52.270;10.334;2023-05-15T18:22:59;3.47;;;2.70;;
26474;SDS011;14161;52.270;10.334;2023-05-15T18:25:25;2.63;;;2.40;;
26474;SDS011;14161;52.270;10.334;2023-05-15T18:27:50;4.30;;;2.72;;
26474;SDS011;14161;52.270;10.334;2023-05-15T18:30:16;5.32;;;3.50;;
26474;SDS011;14161;52.270;10.334;2023-05-15T18:32:42;4.13;;;2.97;;
26474;SDS011;14161;52.270;10.334;2023-05-15T18:35:07;3.83;;;3.00;;
26474;SDS011;14161;52.270;10.334;2023-05-15T18:37:33;4.07;;;3.13;;
26474;SDS011;14161;52.270;10.334;2023-05-15T18:39:58;4.60;;;2.83;;
26474;SDS011;14161;52.270;10.334;2023-05-15T18:42:24;3.95;;;3.08;;
26474;SDS011;14161;52.270;10.334;2023-05-15T18:44:50;3.63;;;3.15;;
26474;SDS011;14161;52.270;10.334;2023-05-15T18:47:16;6.20;;;3.53;;
26474;SDS011;14161;52.270;10.334;2023-05-15T18:49:42;4.47;;;3.38;;
26474;SDS011;14161;52.270;10.334;2023-05-15T18:52:08;3.75;;;3.20;;
26474;SDS011;14161;52.270;10.334;2023-05-15T18:54:33;4.50;;;2.97;;
26474;SDS011;14161;52.270;10.334;2023-05-15T18:56:59;3.47;;;3.17;;
26474;SDS011;14161;52.270;10.334;2023-05-15T18:59:24;4.97;;;2.92;;
26474;SDS011;14161;52.270;10.334;2023-05-15T19:01:51;7.00;;;3.33;;
26474;SDS011;14161;52.270;10.334;2023-05-15T19:04:18;4.10;;;3.10;;
26474;SDS011;14161;52.270;10.334;2023-05-15T19:06:43;6.43;;;3.13;;
26474;SDS011;14161;52.270;10.334;2023-05-15T19:09:09;5.22;;;2.90;;
26474;SDS011;14161;52.270;10.334;2023-05-15T19:11:35;3.97;;;2.80;;
26474;SDS011;14161;52.270;10.334;2023-05-15T19:14:00;3.13;;;2.42;;
26474;SDS011;14161;52.270;10.334;2023-05-15T19:16:26;5.78;;;2.90;;
26474;SDS011;14161;52.270;10.334;2023-05-15T19:18:53;4.47;;;3.00;;
26474;SDS011;14161;52.270;10.334;2023-05-15T19:21:19;4.95;;;2.83;;
26474;SDS011;14161;52.270;10.334;2023-05-15T19:23:45;5.53;;;2.35;;
26474;SDS011;14161;52.270;10.334;2023-05-15T19:26:11;2.60;;;2.40;;
26474;SDS011;14161;52.270;10.334;2023-05-15T19:28:37;4.40;;;2.47;;
26474;SDS011;14161;52.270;10.334;2023-05-15T19:31:02;4.15;;;2.47;;
26474;SDS011;14161;52.270;10.334;2023-05-15T19:33:30;3.25;;;2.28;;
26474;SDS011;14161;52.270;10.334;2023-05-15T19:35:56;5.55;;;2.80;;
26474;SDS011;14161;52.270;10.334;2023-05-15T19:38:21;5.20;;;2.75;;
26474;SDS011;14161;52.270;10.334;2023-05-15T19:40:47;5.30;;;2.88;;
26474;SDS011;14161;52.270;10.334;2023-05-15T19:43:12;3.10;;;2.70;;
26474;SDS011;14161;52.270;10.334;2023-05-15T19:45:41;2.58;;;2.35;;
26474;SDS011;14161;52.270;10.334;2023-05-15T19:48:07;3.28;;;2.58;;
26474;SDS011;14161;52.270;10.334;2023-05-15T19:50:33;4.88;;;2.67;;
26474;SDS011;14161;52.270;10.334;2023-05-15T19:52:58;4.63;;;2.33;;
26474;SDS011;14161;52.270;10.334;2023-05-15T19:55:24;6.07;;;2.90;;
26474;SDS011;14161;52.270;10.334;2023-05-15T19:57:50;3.42;;;2.70;;
26474;SDS011;14161;52.270;10.334;2023-05-15T20:00:19;4.00;;;3.15;;
26474;SDS011;14161;52.270;10.334;2023-05-15T20:02:45;3.22;;;2.90;;
26474;SDS011;14161;52.270;10.334;2023-05-15T20:05:11;6.68;;;3.25;;
26474;SDS011;14161;52.270;10.334;2023-05-15T20:07:37;8.38;;;3.80;;
26474;SDS011;14161;52.270;10.334;2023-05-15T20:10:03;4.78;;;3.92;;
26474;SDS011;14161;52.270;10.334;2023-05-15T20:12:28;3.50;;;3.20;;
26474;SDS011;14161;52.270;10.334;2023-05-15T20:14:54;7.22;;;3.13;;
26474;SDS011;14161;52.270;10.334;2023-05-15T20:17:19;5.13;;;3.42;;
26474;SDS011;14161;52.270;10.334;2023-05-15T20:19:45;3.17;;;2.65;;
26474;SDS011;14161;52.270;10.334;2023-05-15T20:22:12;3.60;;;2.75;;
26474;SDS011;14161;52.270;10.334;2023-05-15T20:24:37;4.38;;;2.88;;
26474;SDS011;14161;52.270;10.334;2023-05-15T20:27:06;5.78;;;2.75;;
26474;SDS011;14161;52.270;10.334;2023-05-15T20:29:31;5.55;;;3.10;;
26474;SDS011;14161;52.270;10.334;2023-05-15T20:31:57;3.20;;;2.90;;
26474;SDS011;14161;52.270;10.334;2023-05-15T20:34:23;4.55;;;3.35;;
26474;SDS011;14161;52.270;10.334;2023-05-15T20:36:49;3.97;;;3.00;;
26474;SDS011;14161;52.270;10.334;2023-05-15T20:39:18;3.35;;;2.38;;
26474;SDS011;14161;52.270;10.334;2023-05-15T20:41:44;4.18;;;3.17;;
26474;SDS011;14161;52.270;10.334;2023-05-15T20:44:09;4.10;;;2.83;;
26474;SDS011;14161;52.270;10.334;2023-05-15T20:46:37;4.93;;;2.67;;
26474;SDS011;14161;52.270;10.334;2023-05-15T20:49:04;3.25;;;2.65;;
26474;SDS011;14161;52.270;10.334;2023-05-15T20:51:30;3.60;;;2.65;;
26474;SDS011;14161;52.270;10.334;2023-05-15T20:53:55;3.67;;;2.88;;
26474;SDS011;14161;52.270;10.334;2023-05-15T20:56:24;3.45;;;2.88;;
26474;SDS011;14161;52.270;10.334;2023-05-15T20:58:50;5.90;;;2.90;;
26474;SDS011;14161;52.270;10.334;2023-05-15T21:01:15;3.95;;;2.55;;
26474;SDS011;14161;52.270;10.334;2023-05-15T21:03:41;4.50;;;3.30;;
26474;SDS011;14161;52.270;10.334;2023-05-15T21:06:07;5.75;;;3.15;;
26474;SDS011;14161;52.270;10.334;2023-05-15T21:08:33;5.90;;;3.53;;
26474;SDS011;14161;52.270;10.334;2023-05-15T21:10:58;5.30;;;3.58;;
26474;SDS011;14161;52.270;10.334;2023-05-15T21:13:24;7.82;;;3.50;;
26474;SDS011;14161;52.270;10.334;2023-05-15T21:15:49;5.40;;;3.70;;
26474;SDS011;14161;52.270;10.334;2023-05-15T21:18:15;4.78;;;3.88;;
26474;SDS011;14161;52.270;10.334;2023-05-15T21:20:40;6.57;;;3.63;;
26474;SDS011;14161;52.270;10.334;2023-05-15T21:23:06;5.78;;;4.38;;
26474;SDS011;14161;52.270;10.334;2023-05-15T21:25:32;4.82;;;3.53;;
26474;SDS011;14161;52.270;10.334;2023-05-15T21:27:57;5.88;;;4.38;;
26474;SDS011;14161;52.270;10.334;2023-05-15T21:30:23;6.07;;;4.10;;
26474;SDS011;14161;52.270;10.334;2023-05-15T21:32:48;4.35;;;3.88;;
26474;SDS011;14161;52.270;10.334;2023-05-15T21:35:14;6.47;;;4.05;;
26474;SDS011;14161;52.270;10.334;2023-05-15T21:37:40;4.75;;;3.92;;
26474;SDS011;14161;52.270;10.334;2023-05-15T21:40:05;4.43;;;3.53;;
26474;SDS011;14161;52.270;10.334;2023-05-15T21:42:31;7.65;;;4.55;;
26474;SDS011;14161;52.270;10.334;2023-05-15T21:44:56;6.20;;;4.18;;
26474;SDS011;14161;52.270;10.334;2023-05-15T21:47:22;4.78;;;4.05;;
26474;SDS011;14161;52.270;10.334;2023-05-15T21:49:48;5.32;;;4.22;;
26474;SDS011;14161;52.270;10.334;2023-05-15T21:52:14;5.22;;;4.13;;
26474;SDS011;14161;52.270;10.334;2023-05-15T21:54:39;6.20;;;4.95;;
26474;SDS011;14161;52.270;10.334;2023-05-15T21:57:07;6.03;;;5.40;;
26474;SDS011;14161;52.270;10.334;2023-05-15T21:59:33;5.28;;;4.70;;
26474;SDS011;14161;52.270;10.334;2023-05-15T22:01:59;6.18;;;5.55;;
26474;SDS011;14161;52.270;10.334;2023-05-15T22:04:24;6.10;;;4.95;;
26474;SDS011;14161;52.270;10.334;2023-05-15T22:06:50;8.55;;;5.15;;
26474;SDS011;14161;52.270;10.334;2023-05-15T22:09:15;9.20;;;5.85;;
26474;SDS011;14161;52.270;10.334;2023-05-15T22:11:41;6.47;;;5.40;;
26474;SDS011;14161;52.270;10.334;2023-05-15T22:14:06;7.40;;;6.10;;
26474;SDS011;14161;52.270;10.334;2023-05-15T22:16:32;6.80;;;5.40;;
26474;SDS011;14161;52.270;10.334;2023-05-15T22:18:58;6.63;;;5.70;;
26474;SDS011;14161;52.270;10.334;2023-05-15T22:21:23;6.70;;;6.10;;
26474;SDS011;14161;52.270;10.334;2023-05-15T22:23:49;10.27;;;7.25;;
26474;SDS011;14161;52.270;10.334;2023-05-15T22:26:14;7.90;;;6.07;;
26474;SDS011;14161;52.270;10.334;2023-05-15T22:28:40;7.43;;;6.32;;
26474;SDS011;14161;52.270;10.334;2023-05-15T22:31:06;7.82;;;6.15;;
26474;SDS011;14161;52.270;10.334;2023-05-15T22:33:31;8.43;;;6.93;;
26474;SDS011;14161;52.270;10.334;2023-05-15T22:35:57;7.18;;;6.47;;
26474;SDS011;14161;52.270;10.334;2023-05-15T22:38:22;8.35;;;6.93;;
26474;SDS011;14161;52.270;10.334;2023-05-15T22:40:51;10.60;;;7.10;;
26474;SDS011;14161;52.270;10.334;2023-05-15T22:43:17;7.82;;;6.47;;
26474;SDS011;14161;52.270;10.334;2023-05-15T22:45:42;8.55;;;6.47;;
26474;SDS011;14161;52.270;10.334;2023-05-15T22:48:08;8.65;;;6.55;;
26474;SDS011;14161;52.270;10.334;2023-05-15T22:50:33;9.65;;;6.78;;
26474;SDS011;14161;52.270;10.334;2023-05-15T22:53:00;8.80;;;7.05;;
26474;SDS011;14161;52.270;10.334;2023-05-15T22:55:25;6.95;;;6.25;;
26474;SDS011;14161;52.270;10.334;2023-05-15T22:57:51;8.13;;;6.25;;
26474;SDS011;14161;52.270;10.334;2023-05-15T23:00:16;7.03;;;5.55;;
26474;SDS011;14161;52.270;10.334;2023-05-15T23:02:43;6.88;;;4.93;;
26474;SDS011;14161;52.270;10.334;2023-05-15T23:05:08;5.97;;;5.35;;
26474;SDS011;14161;52.270;10.334;2023-05-15T23:07:34;6.07;;;5.45;;
26474;SDS011;14161;52.270;10.334;2023-05-15T23:09:59;8.15;;;5.63;;
26474;SDS011;14161;52.270;10.334;2023-05-15T23:12:25;6.20;;;4.80;;
26474;SDS011;14161;52.270;10.334;2023-05-15T23:14:50;8.45;;;5.95;;
26474;SDS011;14161;52.270;10.334;2023-05-15T23:17:16;6.40;;;5.53;;
26474;SDS011;14161;52.270;10.334;2023-05-15T23:19:41;8.50;;;5.93;;
26474;SDS011;14161;52.270;10.334;2023-05-15T23:22:06;6.15;;;4.75;;
26474;SDS011;14161;52.270;10.334;2023-05-15T23:24:32;5.45;;;4.95;;
26474;SDS011;14161;52.270;10.334;2023-05-15T23:26:57;9.10;;;4.75;;
26474;SDS011;14161;52.270;10.334;2023-05-15T23:29:23;5.07;;;4.57;;
26474;SDS011;14161;52.270;10.334;2023-05-15T23:31:48;5.00;;;4.53;;
26474;SDS011;14161;52.270;10.334;2023-05-15T23:34:14;5.78;;;4.78;;
26474;SDS011;14161;52.270;10.334;2023-05-15T23:36:40;5.95;;;4.88;;
26474;SDS011;14161;52.270;10.334;2023-05-15T23:39:05;5.72;;;4.70;;
26474;SDS011;14161;52.270;10.334;2023-05-15T23:41:32;5.55;;;4.10;;
26474;SDS011;14161;52.270;10.334;2023-05-15T23:43:57;6.47;;;4.80;;
26474;SDS011;14161;52.270;10.334;2023-05-15T23:46:23;5.30;;;4.43;;
26474;SDS011;14161;52.270;10.334;2023-05-15T23:48:49;7.18;;;4.50;;
26474;SDS011;14161;52.270;10.334;2023-05-15T23:51:15;4.47;;;3.97;;
26474;SDS011;14161;52.270;10.334;2023-05-15T23:53:40;5.50;;;4.10;;
26474;SDS011;14161;52.270;10.334;2023-05-15T23:56:06;5.07;;;3.95;;
26474;SDS011;14161;52.270;10.334;2023-05-15T23:58:32;3.97;;;3.58;;
